Weather observations for the past three days for
Peoria - General Downing-Peoria International Airport
Metric (Imperial)
Date Time (cdt) Wind (kph) Vis. (km) Weather Sky Cond. Temperature (ºC) Relative Humidity Wind Chill (°C) Heat Index (°C) Pressure Precipitation (cm)
Air Dwpt 6 hour altimeter (cm) sea level (mb) 1 hr 3 hr 6 hr
Max. Min.
06 10:54 SE 15 16.09 Fair CLR 26.1 18.3 62% 27 76.43 1018.4
06 09:54 E 15 16.09 Fair CLR 25 18.9 69% 26 76.4 1018.0
06 08:54 E 19 16.09 Mostly Cloudy BKN012 23.3 20 82% 76.4 1018.0
06 07:54 NE 11 16.09 Overcast OVC012 22.8 20.6 87% 76.4 1018.0
06 06:54 NE 13 16.09 Overcast OVC011 22.2 20.6 22.8 22.2 91% 76.33 1016.9
06 05:54 NE 9 16.09 Overcast OVC013 22.2 20 87% 76.25 1016.1
06 04:54 NE 17 16.09 Overcast OVC013 22.2 20 87% 76.23 1015.6
06 03:54 E 17 16.09 Overcast OVC014 22.2 20 87% 76.23 1015.4
06 02:54 NE 9 16.09 Partly Cloudy SCT016 22.2 20 87% 76.25 1015.9
06 01:54 E 9 16.09 Fair CLR 22.2 20 87% 76.25 1015.9
06 00:54 E 24 16.09 Fair CLR 22.2 20 29.4 22.2 87% 76.25 1016.1
05 23:54 E 15 16.09 Fair CLR 23.3 20.6 85% 76.23 1015.5
05 22:54 E 19 16.09 Fair CLR 24.4 21.1 82% 25 76.17 1014.7
05 21:54 E 19 16.09 Fair CLR 25 21.1 79% 26 76.12 1014.4
05 20:54 NE 19 16.09 Fair CLR 26.1 21.7 77% 28 76.12 1014.3
05 19:54 NE 22 G 44 16.09 A Few Clouds FEW032 27.8 22.8 74% 31 76.07 1013.4
05 18:54 NE 19 G 31 16.09 Fair CLR 29.4 23.9 34.4 29.4 72% 34 76.02 1013.1
05 17:54 NE 13 16.09 Fair CLR 32.8 23.9 59% 39 75.97 1012.2
05 16:54 N 15 16.09 A Few Clouds FEW040 33.3 23.9 58% 39 76 1012.3
05 15:54 Vrbl 11 16.09 Partly Cloudy SCT040 33.9 24.4 58% 41 76 1012.3
05 14:54 N 9 16.09 A Few Clouds FEW037 33.9 25 60% 42 76.02 1012.7
05 12:54 Vrbl 6 16.09 Fair CLR 33.3 24.4 33.3 23.9 60% 40 76.07 1013.4
05 11:54 N 7 16.09 Fair CLR 32.8 24.4 61% 39 76.1 1013.7
05 09:54 N 9 16.09 Fair CLR 30.6 23.3 65% 35 76.07 1013.5
05 08:54 Calm 16.09 Fair CLR 29.4 23.3 70% 34 76.05 1013.2
05 07:54 W 6 16.09 Fair CLR 26.7 22.8 79% 29 76.05 1013.2
05 06:54 Calm 16.09 Fair CLR 23.9 22.8 26.7 23.9 94% 23 76.02 1012.7
05 05:54 Calm 16.09 Fair CLR 24.4 22.8 91% 24 76 1012.3
05 04:54 Calm 16.09 Fair CLR 24.4 23.3 94% 24 76 1012.5
05 03:54 SW 6 16.09 Fair CLR 25.6 23.3 87% 27 76 1012.5
05 02:54 Calm 16.09 Fair CLR 25 23.9 94% 26 76.02 1012.7
05 01:54 SW 6 16.09 Fair CLR 26.1 23.9 88% 28 76.02 1012.8
05 00:54 Calm 16.09 Fair CLR 25.6 23.9 32.2 25.6 90% 27 76.05 1013.2
04 23:54 Calm 16.09 Fair CLR 26.7 24.4 87% 30 76.02 1012.9
04 22:54 Calm 16.09 Fair CLR 26.1 24.4 90% 28 76.02 1012.8
04 21:54 Calm 16.09 Fair CLR 28.3 24.4 79% 33 76.02 1012.7
04 20:54 Calm 16.09 Fair CLR 27.8 25 85% 32 76.02 1012.7
04 19:54 Calm 16.09 Fair CLR 28.9 25 80% 34 75.97 1012.3
04 18:54 SW 9 16.09 Fair CLR 32.2 23.9 35.6 32.2 62% 38 75.95 1011.9
04 16:54 SW 13 16.09 Fair CLR 35 22.8 49% 40 75.97 1012.1
04 15:54 W 13 16.09 Fair CLR 35 22.8 49% 40 76 1012.4
04 14:54 W 7 16.09 Fair CLR 35 22.8 49% 40 76.07 1013.3
04 13:54 W 6 16.09 Fair CLR 34.4 22.8 51% 40 76.1 1013.9
04 12:54 Vrbl 7 16.09 Fair CLR 33.9 22.8 33.9 24.4 52% 39 76.12 1014.1
04 11:54 W 11 16.09 Fair CLR 33.3 22.8 54% 38 76.15 1014.5
04 10:54 W 9 16.09 Fair CLR 32.2 22.2 56% 36 76.15 1014.5
04 09:54 SW 13 16.09 Fair CLR 30 22.2 63% 33 76.12 1014.3
04 08:54 SW 17 16.09 Fair CLR 28.3 22.8 72% 32 76.1 1014.0
04 07:54 SW 11 16.09 Fair CLR 25.6 22.2 82% 27 76.07 1013.5
04 06:54 SW 7 16.09 Fair CLR 24.4 21.7 27.2 23.9 85% 25 76.05 1013.1
04 05:54 SW 6 16.09 Fair CLR 24.4 21.7 85% 25 76.05 1013.0
04 04:54 S 7 16.09 Fair CLR 25 21.1 79% 26 76.02 1012.8
04 03:54 S 6 16.09 Fair CLR 25 21.1 79% 26 76 1012.5
04 02:54 SW 9 16.09 Fair CLR 25.6 21.1 76% 27 76 1012.4
04 01:54 Calm 16.09 Fair CLR 26.1 21.7 77% 28 76.05 1013.0
04 00:54 S 6 16.09 Fair CLR 26.7 22.2 32.2 26.1 76% 29 76.05 1013.0
03 23:54 S 6 16.09 Fair CLR 27.2 22.8 77% 30 76.05 1013.1
03 22:54 Calm 16.09 Fair CLR 26.7 22.8 79% 29 76.02 1013.0
03 21:54 Calm 16.09 Fair CLR 27.2 22.8 77% 30 76.02 1012.7
03 20:54 S 7 16.09 Fair CLR 29.4 22.2 65% 33 75.95 1011.9
03 19:54 SW 7 16.09 Fair CLR 30.6 23.3 65% 35 75.95 1011.6
03 18:54 SW 7 16.09 Fair CLR 32.2 23.9 35.6 32.2 62% 38 75.92 1011.6
03 17:54 SW 11 16.09 Fair CLR 33.9 22.8 52% 39 75.95 1011.8
03 16:54 W 11 16.09 A Few Clouds FEW110 35.6 21.7 44% 40 75.97 1012.1
03 15:54 W 17 16.09 Fair CLR 35.6 21.7 44% 40 75.97 1012.3
03 14:54 SW 15 16.09 Fair CLR 35.6 22.2 46% 40 76 1012.3
03 13:54 SW 15 16.09 Partly Cloudy SCT110 35 22.8 49% 40 76.02 1012.8
03 12:54 Vrbl 11 16.09 Fair CLR 34.4 22.8 34.4 23.9 51% 40 76.07 1013.3
03 11:54 SW 11 16.09 Mostly Cloudy BKN120 32.8 23.3 57% 38 76.1 1013.7
Date Time (cdt) Wind (kph) Vis. (km) Weather Sky Cond. Air Dwpt Max. Min. Relative Humidity Wind Chill (°C) Heat Index (°C) altimeter (cm) sea level (mb) 1 hr 3 hr 6 hr
6 hour
Temperature (ºC) Pressure Precipitation (cm)